createdAt,value
2019-05-06T00:00:34.106Z,1008.04
2019-05-06T00:01:34.023Z,1008.04
2019-05-06T00:02:34.094Z,1008.01
2019-05-06T00:03:34.386Z,1007.99
2019-05-06T00:04:34.107Z,1008.01
2019-05-06T00:05:34.130Z,1008.01
2019-05-06T00:06:34.550Z,1007.99
2019-05-06T00:07:34.212Z,1008.01
2019-05-06T00:08:34.543Z,1007.96
2019-05-06T00:09:34.875Z,1007.94
2019-05-06T00:10:34.145Z,1007.92
2019-05-06T00:11:34.661Z,1007.96
2019-05-06T00:12:33.620Z,1007.93
2019-05-06T00:13:34.331Z,1007.94
2019-05-06T00:14:33.982Z,1007.92
2019-05-06T00:15:34.266Z,1007.89
2019-05-06T00:16:34.677Z,1007.89
2019-05-06T00:17:34.919Z,1007.92
2019-05-06T00:18:34.208Z,1007.96
2019-05-06T00:19:34.163Z,1007.91
2019-05-06T00:20:34.797Z,1007.88
2019-05-06T00:21:35.266Z,1007.93
2019-05-06T00:22:34.341Z,1007.90
2019-05-06T00:23:35.321Z,1007.89
2019-05-06T00:24:34.782Z,1007.90
2019-05-06T00:25:34.852Z,1007.88
2019-05-06T00:26:34.007Z,1007.90
2019-05-06T00:27:34.207Z,1007.86
2019-05-06T00:28:33.959Z,1007.88
2019-05-06T00:29:34.922Z,1007.86
2019-05-06T00:30:34.555Z,1007.85
2019-05-06T00:31:34.574Z,1007.87
2019-05-06T00:32:34.826Z,1007.93
2019-05-06T00:33:34.141Z,1007.83
2019-05-06T00:34:34.114Z,1007.87
2019-05-06T00:35:34.290Z,1007.93
2019-05-06T00:36:34.455Z,1007.93
2019-05-06T00:37:34.878Z,1007.94
2019-05-06T00:38:34.076Z,1007.93
2019-05-06T00:39:33.633Z,1007.92
2019-05-06T00:40:34.012Z,1007.95
2019-05-06T00:41:36.274Z,1007.96
2019-05-06T00:42:34.716Z,1007.96
2019-05-06T00:43:34.515Z,1007.99
2019-05-06T00:44:34.640Z,1007.98
2019-05-06T00:45:34.156Z,1008.01
2019-05-06T00:46:34.443Z,1008.06
2019-05-06T00:47:33.989Z,1008.02
2019-05-06T00:48:34.173Z,1008.03
2019-05-06T00:49:34.474Z,1007.99
2019-05-06T00:50:34.713Z,1008.02
2019-05-06T00:51:33.888Z,1008.01
2019-05-06T00:52:33.991Z,1008.00
2019-05-06T00:53:34.751Z,1008.03
2019-05-06T00:54:34.108Z,1007.99
2019-05-06T00:55:33.766Z,1007.97
2019-05-06T00:56:33.967Z,1007.97
2019-05-06T00:57:34.014Z,1007.93
2019-05-06T00:58:34.795Z,1007.95
2019-05-06T00:59:34.553Z,1008.02
2019-05-06T01:00:33.763Z,1007.96
2019-05-06T01:01:34.474Z,1007.95
2019-05-06T01:02:34.233Z,1007.97
2019-05-06T01:03:34.760Z,1007.93
2019-05-06T01:04:33.896Z,1007.99
2019-05-06T01:05:33.804Z,1007.93
2019-05-06T01:06:34.432Z,1007.95
2019-05-06T01:07:34.492Z,1007.97
2019-05-06T01:08:34.898Z,1007.99
2019-05-06T01:09:34.354Z,1007.99
2019-05-06T01:10:34.345Z,1007.97
2019-05-06T01:11:34.611Z,1007.97
2019-05-06T01:12:34.564Z,1007.96
2019-05-06T01:13:34.960Z,1007.99
2019-05-06T01:14:32.611Z,1007.96
2019-05-06T01:15:34.361Z,1007.94
2019-05-06T01:16:34.474Z,1007.96
2019-05-06T01:17:33.906Z,1007.98
2019-05-06T01:18:34.040Z,1008.00
2019-05-06T01:19:34.215Z,1007.96
2019-05-06T01:20:33.934Z,1007.99
2019-05-06T01:21:34.249Z,1008.02
2019-05-06T01:22:34.193Z,1007.98
2019-05-06T01:23:34.225Z,1007.98
2019-05-06T01:24:34.357Z,1007.97
2019-05-06T01:25:34.469Z,1008.00
2019-05-06T01:26:33.795Z,1008.01
2019-05-06T01:27:33.745Z,1008.01
2019-05-06T01:28:34.118Z,1008.00
2019-05-06T01:29:34.643Z,1007.98
2019-05-06T01:30:33.707Z,1007.95
2019-05-06T01:31:40.560Z,1007.97
2019-05-06T01:32:34.547Z,1007.96
2019-05-06T01:33:32.482Z,1007.99
2019-05-06T01:34:33.961Z,1007.95
2019-05-06T01:35:32.395Z,1008.00
2019-05-06T01:36:34.379Z,1007.96
2019-05-06T01:37:34.582Z,1007.98
2019-05-06T01:38:34.011Z,1008.01
2019-05-06T01:39:34.138Z,1008.01
2019-05-06T01:40:34.489Z,1008.01
2019-05-06T01:41:33.848Z,1008.00
2019-05-06T01:42:34.302Z,1007.99
2019-05-06T01:43:34.540Z,1008.00
2019-05-06T01:44:33.937Z,1008.01
2019-05-06T01:45:32.286Z,1008.01
2019-05-06T01:46:33.991Z,1007.99
2019-05-06T01:47:34.428Z,1008.01
2019-05-06T01:48:33.638Z,1008.04
2019-05-06T01:49:34.056Z,1008.03
2019-05-06T01:50:34.421Z,1008.00
2019-05-06T01:51:34.599Z,1008.01
2019-05-06T01:52:34.343Z,1007.97
2019-05-06T01:53:33.878Z,1008.01
2019-05-06T01:54:34.157Z,1008.03
2019-05-06T01:55:34.206Z,1008.06
2019-05-06T01:56:33.652Z,1008.07
2019-05-06T01:57:33.768Z,1008.02
2019-05-06T01:58:33.563Z,1008.03
2019-05-06T01:59:34.065Z,1008.07
2019-05-06T02:01:59.915Z,1008.03
2019-05-06T02:02:48.855Z,1008.00
2019-05-06T02:03:48.766Z,1008.00
2019-05-06T02:04:47.843Z,1007.97
2019-05-06T02:05:47.834Z,1008.01
2019-05-06T02:06:47.824Z,1007.99
2019-05-06T02:07:47.833Z,1007.97
2019-05-06T02:08:47.803Z,1008.00
2019-05-06T02:09:47.783Z,1007.99
2019-05-06T02:10:48.090Z,1008.02
2019-05-06T02:11:48.337Z,1007.99
2019-05-06T02:12:47.752Z,1007.95
2019-05-06T02:13:48.242Z,1008.00
2019-05-06T02:14:47.733Z,1008.02
2019-05-06T02:15:47.721Z,1008.06
2019-05-06T02:16:47.710Z,1008.00
2019-05-06T02:17:47.989Z,1008.05
2019-05-06T02:18:47.691Z,1008.06
2019-05-06T02:19:47.714Z,1008.04
2019-05-06T02:20:47.676Z,1008.03
2019-05-06T02:21:47.662Z,1008.03
2019-05-06T02:22:47.651Z,1008.05
2019-05-06T02:23:47.638Z,1008.06
2019-05-06T02:24:47.921Z,1008.05
2019-05-06T02:25:47.651Z,1008.03
2019-05-06T02:26:47.608Z,1008.07
2019-05-06T02:27:47.599Z,1008.06
2019-05-06T02:28:47.595Z,1008.07
2019-05-06T02:29:47.569Z,1008.10
2019-05-06T02:30:47.568Z,1008.05
2019-05-06T02:31:48.079Z,1008.10
2019-05-06T02:32:47.546Z,1008.08
2019-05-06T02:33:47.537Z,1008.04
2019-05-06T02:34:47.539Z,1008.06
2019-05-06T02:35:47.519Z,1008.08
2019-05-06T02:36:47.528Z,1008.07
2019-05-06T02:37:47.814Z,1008.05
2019-05-06T02:38:51.418Z,1008.09
2019-05-06T02:39:48.470Z,1008.11
2019-05-06T02:40:47.458Z,1008.05
2019-05-06T02:41:47.451Z,1008.13
2019-05-06T02:42:47.453Z,1008.10
2019-05-06T02:43:47.458Z,1008.09
2019-05-06T02:44:47.727Z,1008.14
2019-05-06T02:45:47.408Z,1008.08
2019-05-06T02:46:47.398Z,1008.13
2019-05-06T02:47:47.394Z,1008.18
2019-05-06T02:48:47.379Z,1008.13
2019-05-06T02:49:47.407Z,1008.16
2019-05-06T02:50:47.346Z,1008.12
2019-05-06T02:51:48.591Z,1008.07
2019-05-06T02:52:47.336Z,1008.14
2019-05-06T02:53:48.317Z,1008.15
2019-05-06T02:54:47.314Z,1008.14
2019-05-06T02:55:47.335Z,1008.11
2019-05-06T02:56:47.296Z,1008.12
2019-05-06T02:57:47.809Z,1008.13
2019-05-06T02:58:47.565Z,1008.09
2019-05-06T02:59:48.184Z,1008.09
2019-05-06T03:00:47.811Z,1008.08
2019-05-06T03:01:47.275Z,1008.03
2019-05-06T03:02:48.543Z,1008.03
2019-05-06T03:03:47.801Z,1008.07
2019-05-06T03:04:47.203Z,1008.07
2019-05-06T03:05:47.504Z,1008.05
2019-05-06T03:06:48.550Z,1008.01
2019-05-06T03:07:47.903Z,1008.02
2019-05-06T03:08:47.169Z,1007.99
2019-05-06T03:09:47.152Z,1007.99
2019-05-06T03:10:47.150Z,1008.00
2019-05-06T03:11:47.155Z,1007.99
2019-05-06T03:12:47.425Z,1007.96
2019-05-06T03:13:47.143Z,1007.94
2019-05-06T03:14:47.116Z,1007.94
2019-05-06T03:15:47.083Z,1007.99
2019-05-06T03:16:47.693Z,1007.93
2019-05-06T03:17:47.063Z,1007.98
2019-05-06T03:18:47.061Z,1007.95
2019-05-06T03:19:47.382Z,1007.95
2019-05-06T03:20:47.042Z,1007.90
2019-05-06T03:21:47.032Z,1007.93
2019-05-06T03:22:47.699Z,1007.97
2019-05-06T03:23:47.010Z,1007.91
2019-05-06T03:24:47.690Z,1007.91
2019-05-06T03:25:47.020Z,1007.91
2019-05-06T03:26:47.290Z,1007.96
2019-05-06T03:27:47.223Z,1007.92
2019-05-06T03:28:46.960Z,1007.94
2019-05-06T03:29:46.974Z,1007.92
2019-05-06T03:30:46.930Z,1007.90
2019-05-06T03:31:46.978Z,1007.96
2019-05-06T03:33:18.701Z,1007.94
2019-05-06T03:34:05.878Z,1007.93
2019-05-06T03:35:08.884Z,1007.92
2019-05-06T03:36:00.505Z,1007.94
2019-05-06T03:36:49.036Z,1007.97
2019-05-06T03:37:46.861Z,1007.99
2019-05-06T03:38:46.850Z,1007.98
2019-05-06T03:39:52.857Z,1007.96
2019-05-06T03:40:46.829Z,1007.95
2019-05-06T03:41:46.849Z,1007.97
2019-05-06T03:42:47.537Z,1007.89
2019-05-06T03:43:46.792Z,1007.94
2019-05-06T03:44:46.789Z,1007.90
2019-05-06T03:45:46.770Z,1007.97
2019-05-06T03:46:46.757Z,1007.92
2019-05-06T03:47:46.754Z,1007.92
2019-05-06T03:48:46.782Z,1007.90
2019-05-06T03:49:49.960Z,1007.89
2019-05-06T03:50:46.726Z,1007.87
2019-05-06T03:51:46.998Z,1007.88
2019-05-06T03:52:46.701Z,1007.85
2019-05-06T03:53:46.687Z,1007.88
2019-05-06T03:54:46.715Z,1007.89
2019-05-06T03:55:47.097Z,1007.85
2019-05-06T03:56:46.654Z,1007.85
2019-05-06T03:57:46.647Z,1007.86
2019-05-06T03:58:46.635Z,1007.90
2019-05-06T03:59:46.627Z,1007.87
2019-05-06T04:00:46.655Z,1007.86
2019-05-06T04:01:46.607Z,1007.86
2019-05-06T04:02:46.601Z,1007.89
2019-05-06T04:03:52.205Z,1007.86
2019-05-06T04:04:47.573Z,1007.89
2019-05-06T04:05:46.565Z,1007.89
2019-05-06T04:06:46.586Z,1007.88
2019-05-06T04:07:46.544Z,1007.86
2019-05-06T04:08:46.533Z,1007.85
2019-05-06T04:09:46.534Z,1007.87
2019-05-06T04:10:46.803Z,1007.85
2019-05-06T04:11:46.504Z,1007.83
2019-05-06T04:12:46.540Z,1007.83
2019-05-06T04:13:46.482Z,1007.80
2019-05-06T04:14:46.462Z,1007.85
2019-05-06T04:15:47.627Z,1007.84
2019-05-06T04:16:46.441Z,1007.89
2019-05-06T04:17:46.755Z,1007.87
2019-05-06T04:18:46.491Z,1007.88
2019-05-06T04:19:46.431Z,1007.87
2019-05-06T04:20:46.402Z,1007.96
2019-05-06T04:21:46.394Z,1007.94
2019-05-06T04:22:46.396Z,1007.93
2019-05-06T04:23:46.372Z,1007.97
2019-05-06T04:24:46.683Z,1007.90
2019-05-06T04:25:46.364Z,1007.92
2019-05-06T04:26:46.641Z,1007.96
2019-05-06T04:27:46.342Z,1007.92
2019-05-06T04:28:46.311Z,1007.94
2019-05-06T04:29:46.309Z,1007.90
2019-05-06T04:30:46.338Z,1007.91
2019-05-06T04:31:46.284Z,1007.91
2019-05-06T04:32:46.271Z,1007.93
2019-05-06T04:34:03.429Z,1007.95
2019-05-06T04:34:47.249Z,1007.97
2019-05-06T04:35:46.251Z,1007.96
2019-05-06T04:36:46.320Z,1008.01
2019-05-06T04:37:46.517Z,1008.00
2019-05-06T04:38:46.216Z,1008.02
2019-05-06T04:39:46.208Z,1007.99
2019-05-06T04:40:46.200Z,1008.00
2019-05-06T04:41:46.178Z,1007.99
2019-05-06T04:42:46.209Z,1008.05
2019-05-06T04:43:46.159Z,1008.04
2019-05-06T04:44:46.644Z,1007.99
2019-05-06T04:45:46.138Z,1007.97
2019-05-06T04:46:46.125Z,1007.97
2019-05-06T04:47:46.750Z,1008.00
2019-05-06T04:48:46.918Z,1007.96
2019-05-06T04:49:46.097Z,1007.99
2019-05-06T04:50:46.089Z,1008.00
2019-05-06T04:51:46.931Z,1007.98
2019-05-06T04:52:46.066Z,1007.97
2019-05-06T04:53:46.057Z,1008.04
2019-05-06T04:54:46.752Z,1008.06
2019-05-06T04:55:46.026Z,1008.02
2019-05-06T04:56:46.055Z,1008.10
2019-05-06T04:57:46.036Z,1008.01
2019-05-06T04:58:46.417Z,1007.99
2019-05-06T04:59:45.993Z,1007.99
2019-05-06T05:00:46.005Z,1007.97
2019-05-06T05:01:46.044Z,1008.00
2019-05-06T05:02:46.424Z,1007.97
2019-05-06T05:03:45.958Z,1007.99
2019-05-06T05:04:45.976Z,1008.00
2019-05-06T05:05:46.219Z,1008.02
2019-05-06T05:06:46.201Z,1007.99
2019-05-06T05:07:45.903Z,1008.06
2019-05-06T05:08:46.637Z,1008.04
2019-05-06T05:09:45.883Z,1008.04
2019-05-06T05:10:45.894Z,1008.06
2019-05-06T05:11:45.941Z,1008.07
2019-05-06T05:12:46.183Z,1008.05
2019-05-06T05:13:45.846Z,1008.06
2019-05-06T05:14:45.832Z,1008.06
2019-05-06T05:15:45.812Z,1008.12
2019-05-06T05:16:45.817Z,1008.07
2019-05-06T05:17:45.812Z,1008.09
2019-05-06T05:18:45.910Z,1008.10
2019-05-06T05:19:46.130Z,1008.11
2019-05-06T05:20:46.856Z,1008.12
2019-05-06T05:21:45.781Z,1008.12
2019-05-06T05:22:45.742Z,1008.08
2019-05-06T05:23:45.745Z,1008.10
2019-05-06T05:24:45.771Z,1008.09
2019-05-06T05:25:45.722Z,1008.08
2019-05-06T05:26:48.209Z,1008.12
2019-05-06T05:27:45.691Z,1008.14
2019-05-06T05:28:45.683Z,1008.14
2019-05-06T05:29:45.674Z,1008.13
2019-05-06T05:30:45.710Z,1008.13
2019-05-06T05:31:45.659Z,1008.18
2019-05-06T05:32:45.642Z,1008.19
2019-05-06T05:33:45.640Z,1008.17
2019-05-06T05:34:45.619Z,1008.17
2019-05-06T05:35:45.606Z,1008.16
2019-05-06T05:36:45.629Z,1008.21
2019-05-06T05:37:45.587Z,1008.22
2019-05-06T05:38:45.577Z,1008.22
2019-05-06T05:39:45.566Z,1008.19
2019-05-06T05:40:45.558Z,1008.23
2019-05-06T05:41:45.548Z,1008.19
2019-05-06T05:42:45.568Z,1008.22
2019-05-06T05:43:45.523Z,1008.18
2019-05-06T05:44:45.516Z,1008.24
2019-05-06T05:45:45.802Z,1008.20
2019-05-06T05:46:45.528Z,1008.23
2019-05-06T05:47:45.496Z,1008.17
2019-05-06T05:48:45.517Z,1008.27
2019-05-06T05:49:45.547Z,1008.25
2019-05-06T05:50:45.455Z,1008.24
2019-05-06T05:51:45.437Z,1008.23
2019-05-06T05:52:45.446Z,1008.22
2019-05-06T05:53:45.428Z,1008.21
2019-05-06T05:54:45.438Z,1008.23
2019-05-06T05:55:45.393Z,1008.21
2019-05-06T05:56:45.481Z,1008.19
2019-05-06T05:57:45.909Z,1008.22
2019-05-06T05:58:45.375Z,1008.21
2019-05-06T05:59:45.356Z,1008.22
2019-05-06T06:00:45.385Z,1008.17
2019-05-06T06:01:45.326Z,1008.18
2019-05-06T06:02:45.401Z,1008.22
2019-05-06T06:03:45.306Z,1008.17
2019-05-06T06:04:54.803Z,1008.17
2019-05-06T06:05:46.345Z,1008.18
2019-05-06T06:06:45.275Z,1008.16
2019-05-06T06:07:45.273Z,1008.15
2019-05-06T06:08:45.264Z,1008.18
2019-05-06T06:09:45.284Z,1008.11
2019-05-06T06:10:45.235Z,1008.11
2019-05-06T06:11:45.254Z,1008.12
2019-05-06T06:12:45.447Z,1008.06
2019-05-06T06:13:47.621Z,1008.13
2019-05-06T06:14:47.310Z,1008.15
2019-05-06T06:15:45.232Z,1008.13
2019-05-06T06:16:46.350Z,1008.21
2019-05-06T06:17:45.576Z,1008.24
2019-05-06T06:18:46.577Z,1008.26
2019-05-06T06:19:45.144Z,1008.24
2019-05-06T06:20:45.882Z,1008.28
2019-05-06T06:21:45.122Z,1008.29
2019-05-06T06:22:45.104Z,1008.30
2019-05-06T06:23:45.133Z,1008.30
2019-05-06T06:24:45.096Z,1008.28
2019-05-06T06:25:45.079Z,1008.35
2019-05-06T06:26:45.070Z,1008.24
2019-05-06T06:27:45.062Z,1008.29
2019-05-06T06:28:45.752Z,1008.30
2019-05-06T06:29:45.469Z,1008.31
2019-05-06T06:30:45.036Z,1008.29
2019-05-06T06:31:45.080Z,1008.31
2019-05-06T06:32:45.131Z,1008.28
2019-05-06T06:33:45.027Z,1008.24
2019-05-06T06:34:44.981Z,1008.23
2019-05-06T06:35:45.024Z,1008.26
2019-05-06T06:36:45.480Z,1008.26
2019-05-06T06:37:45.782Z,1008.26
2019-05-06T06:38:44.940Z,1008.24
2019-05-06T06:39:45.653Z,1008.25
2019-05-06T06:40:45.221Z,1008.25
2019-05-06T06:41:44.965Z,1008.26
2019-05-06T06:42:45.256Z,1008.24
2019-05-06T06:43:45.077Z,1008.23
2019-05-06T06:44:45.041Z,1008.22
2019-05-06T06:45:45.010Z,1008.23
2019-05-06T06:46:45.121Z,1008.16
2019-05-06T06:47:45.293Z,1008.17
2019-05-06T06:48:45.221Z,1008.17
2019-05-06T06:49:44.839Z,1008.19
2019-05-06T06:50:44.810Z,1008.22
2019-05-06T06:51:44.807Z,1008.24
2019-05-06T06:52:44.830Z,1008.19
2019-05-06T06:53:44.828Z,1008.19
2019-05-06T06:54:44.798Z,1008.23
2019-05-06T06:55:44.777Z,1008.21
2019-05-06T06:56:44.751Z,1008.22
2019-05-06T06:57:44.757Z,1008.25
2019-05-06T06:58:44.897Z,1008.27
2019-05-06T06:59:45.803Z,1008.21
2019-05-06T07:00:46.445Z,1008.29
2019-05-06T07:01:44.714Z,1008.25
2019-05-06T07:02:44.687Z,1008.21
2019-05-06T07:03:44.903Z,1008.28
2019-05-06T07:04:44.810Z,1008.21
2019-05-06T07:05:44.716Z,1008.26
2019-05-06T07:06:44.676Z,1008.24
2019-05-06T07:07:47.503Z,1008.19
2019-05-06T07:08:44.910Z,1008.23
2019-05-06T07:09:45.314Z,1008.23
2019-05-06T07:10:44.668Z,1008.17
2019-05-06T07:11:44.966Z,1008.19
2019-05-06T07:12:44.595Z,1008.21
2019-05-06T07:13:44.576Z,1008.21
2019-05-06T07:14:44.556Z,1008.25
2019-05-06T07:15:44.552Z,1008.23
2019-05-06T07:16:44.568Z,1008.21
2019-05-06T07:17:44.566Z,1008.18
2019-05-06T07:18:44.523Z,1008.21
2019-05-06T07:19:44.507Z,1008.17
2019-05-06T07:20:44.507Z,1008.18
2019-05-06T07:21:44.504Z,1008.22
2019-05-06T07:22:44.474Z,1008.18
2019-05-06T07:23:44.494Z,1008.17
2019-05-06T07:24:44.452Z,1008.26
2019-05-06T07:25:44.434Z,1008.19
2019-05-06T07:26:44.443Z,1008.17
2019-05-06T07:27:44.475Z,1008.23
2019-05-06T07:28:44.415Z,1008.20
2019-05-06T07:29:48.361Z,1008.17
2019-05-06T07:30:45.294Z,1008.17
2019-05-06T07:31:44.390Z,1008.14
2019-05-06T07:32:45.180Z,1008.20
2019-05-06T07:33:44.969Z,1008.17
2019-05-06T07:34:44.735Z,1008.17
2019-05-06T07:35:45.033Z,1008.17
2019-05-06T07:36:44.936Z,1008.18
2019-05-06T07:37:45.750Z,1008.19
2019-05-06T07:38:45.012Z,1008.19
2019-05-06T07:39:44.953Z,1008.16
2019-05-06T07:40:44.307Z,1008.15
2019-05-06T07:41:46.228Z,1008.13
2019-05-06T07:42:44.252Z,1008.10
2019-05-06T07:43:44.253Z,1008.09
2019-05-06T07:44:44.233Z,1008.10
2019-05-06T07:45:44.231Z,1008.08
2019-05-06T07:46:44.231Z,1008.09
2019-05-06T07:47:45.751Z,1008.08
2019-05-06T07:48:44.191Z,1008.10
2019-05-06T07:49:45.425Z,1008.09
2019-05-06T07:50:44.976Z,1008.08
2019-05-06T07:51:44.530Z,1008.09
2019-05-06T07:52:44.154Z,1008.08
2019-05-06T07:53:44.212Z,1008.12
2019-05-06T07:54:45.657Z,1008.10
2019-05-06T07:55:44.238Z,1008.08
2019-05-06T07:56:44.110Z,1008.03
2019-05-06T07:57:44.760Z,1008.04
2019-05-06T07:58:44.982Z,1008.07
2019-05-06T07:59:44.150Z,1007.97
2019-05-06T08:00:44.140Z,1008.06
2019-05-06T08:01:44.377Z,1008.07
2019-05-06T08:02:44.049Z,1008.07
2019-05-06T08:03:44.029Z,1008.03
2019-05-06T08:04:44.020Z,1008.02
2019-05-06T08:05:55.250Z,1008.05
2019-05-06T08:06:45.078Z,1008.02
2019-05-06T08:07:44.778Z,1008.00
2019-05-06T08:08:43.979Z,1008.04
2019-05-06T08:09:44.204Z,1008.03
2019-05-06T08:10:44.147Z,1007.93
2019-05-06T08:11:44.759Z,1008.00
2019-05-06T08:12:44.067Z,1008.02
2019-05-06T08:13:43.936Z,1007.99
2019-05-06T08:14:43.920Z,1007.94
2019-05-06T08:15:43.908Z,1007.91
2019-05-06T08:16:44.429Z,1007.92
2019-05-06T08:17:43.947Z,1007.88
2019-05-06T08:18:43.897Z,1007.94
2019-05-06T08:19:44.217Z,1007.92
2019-05-06T08:20:44.018Z,1007.97
2019-05-06T08:21:44.268Z,1007.92
2019-05-06T08:22:44.232Z,1007.94
2019-05-06T08:23:44.337Z,1008.00
2019-05-06T08:24:45.700Z,1008.03
2019-05-06T08:25:43.928Z,1008.02
2019-05-06T08:26:43.787Z,1008.01
2019-05-06T08:27:43.777Z,1007.98
2019-05-06T08:28:44.649Z,1007.99
2019-05-06T08:29:43.798Z,1007.98
2019-05-06T08:30:43.784Z,1008.03
2019-05-06T08:31:43.736Z,1007.97
2019-05-06T08:32:44.835Z,1007.98
2019-05-06T08:33:43.726Z,1008.01
2019-05-06T08:34:43.717Z,1007.99
2019-05-06T08:35:43.745Z,1007.97
2019-05-06T08:36:43.684Z,1007.97
2019-05-06T08:37:43.678Z,1007.97
2019-05-06T08:38:43.669Z,1007.97
2019-05-06T08:39:45.967Z,1008.01
2019-05-06T08:40:43.635Z,1007.98
2019-05-06T08:41:43.684Z,1007.93
2019-05-06T08:42:43.633Z,1007.96
2019-05-06T08:43:43.655Z,1008.02
2019-05-06T08:44:43.616Z,1008.05
2019-05-06T08:45:43.628Z,1007.99
2019-05-06T08:46:43.790Z,1008.00
2019-05-06T08:47:43.615Z,1007.91
2019-05-06T08:48:43.562Z,1007.96
2019-05-06T08:49:43.555Z,1007.95
2019-05-06T08:50:43.587Z,1007.93
2019-05-06T08:51:43.543Z,1007.99
2019-05-06T08:52:43.536Z,1007.95
2019-05-06T08:53:44.053Z,1007.92
2019-05-06T08:54:43.597Z,1007.90
2019-05-06T08:55:43.814Z,1007.93
2019-05-06T08:56:43.512Z,1007.97
2019-05-06T08:57:43.484Z,1007.97
2019-05-06T08:58:43.495Z,1007.93
2019-05-06T08:59:44.502Z,1007.99
2019-05-06T09:00:43.587Z,1007.99
2019-05-06T09:01:44.221Z,1007.94
2019-05-06T09:02:46.119Z,1007.90
2019-05-06T09:03:44.454Z,1007.89
2019-05-06T09:04:43.704Z,1007.93
2019-05-06T09:05:43.423Z,1007.96
2019-05-06T09:06:43.452Z,1007.92
2019-05-06T09:07:44.284Z,1007.86
2019-05-06T09:08:43.345Z,1007.88
2019-05-06T09:09:43.359Z,1007.85
2019-05-06T09:10:43.418Z,1007.88
2019-05-06T09:11:43.442Z,1007.82
2019-05-06T09:12:43.310Z,1007.91
2019-05-06T09:13:43.483Z,1007.86
2019-05-06T09:14:43.304Z,1007.88
2019-05-06T09:15:43.824Z,1007.81
2019-05-06T09:16:43.968Z,1007.87
2019-05-06T09:17:43.293Z,1007.84
2019-05-06T09:18:43.253Z,1007.91
2019-05-06T09:19:43.815Z,1007.91
2019-05-06T09:20:43.345Z,1007.94
2019-05-06T09:21:46.072Z,1007.87
2019-05-06T09:22:43.206Z,1007.89
2019-05-06T09:23:43.220Z,1007.89
2019-05-06T09:24:43.201Z,1007.89
2019-05-06T09:25:43.206Z,1007.75
2019-05-06T09:26:44.626Z,1007.80
2019-05-06T09:27:43.142Z,1007.81
2019-05-06T09:28:43.153Z,1007.81
2019-05-06T09:29:44.041Z,1007.82
2019-05-06T09:30:43.860Z,1007.83
2019-05-06T09:31:43.841Z,1007.82
2019-05-06T09:32:43.832Z,1007.87
2019-05-06T09:33:43.100Z,1007.90
2019-05-06T09:34:43.298Z,1007.76
2019-05-06T09:35:44.870Z,1007.76
2019-05-06T09:36:51.467Z,1007.69
2019-05-06T09:37:45.211Z,1007.80
2019-05-06T09:38:43.284Z,1007.75
2019-05-06T09:39:43.374Z,1007.74
2019-05-06T09:40:43.690Z,1007.71
2019-05-06T09:41:46.568Z,1007.67
2019-05-06T09:42:44.842Z,1007.68
2019-05-06T09:43:44.388Z,1007.69
2019-05-06T09:44:43.001Z,1007.71
2019-05-06T09:45:42.986Z,1007.69
2019-05-06T09:46:43.663Z,1007.77
2019-05-06T09:47:43.041Z,1007.76
2019-05-06T09:48:43.331Z,1007.77
2019-05-06T09:49:42.932Z,1007.78
2019-05-06T09:50:45.981Z,1007.69
2019-05-06T09:51:43.183Z,1007.65
2019-05-06T09:52:42.954Z,1007.78
2019-05-06T09:53:43.657Z,1007.73
2019-05-06T09:54:42.928Z,1007.68
2019-05-06T09:55:43.814Z,1007.69
2019-05-06T09:56:42.892Z,1007.73
2019-05-06T09:57:42.829Z,1007.72
2019-05-06T09:58:43.107Z,1007.82
2019-05-06T09:59:43.836Z,1007.66
2019-05-06T10:00:43.120Z,1007.70
2019-05-06T10:01:43.705Z,1007.70
2019-05-06T10:02:43.000Z,1007.64
2019-05-06T10:03:42.928Z,1007.62
2019-05-06T10:04:42.982Z,1007.60
2019-05-06T10:05:44.283Z,1007.62
2019-05-06T10:06:55.722Z,1007.70
2019-05-06T10:07:44.399Z,1007.61
2019-05-06T10:08:43.388Z,1007.61
2019-05-06T10:09:43.583Z,1007.63
2019-05-06T10:10:56.233Z,1007.55
2019-05-06T10:11:44.050Z,1007.54
2019-05-06T10:12:42.958Z,1007.55
2019-05-06T10:13:47.964Z,1007.57
2019-05-06T10:14:43.589Z,1007.62
2019-05-06T10:15:43.889Z,1007.56
2019-05-06T10:16:43.267Z,1007.62
2019-05-06T10:17:43.301Z,1007.55
2019-05-06T10:18:42.919Z,1007.57
2019-05-06T10:19:43.197Z,1007.52
2019-05-06T10:20:43.303Z,1007.56
2019-05-06T10:21:43.270Z,1007.59
2019-05-06T10:22:43.640Z,1007.47
2019-05-06T10:23:44.087Z,1007.48
2019-05-06T10:24:43.680Z,1007.53
2019-05-06T10:25:44.094Z,1007.53
2019-05-06T10:26:43.222Z,1007.52
2019-05-06T10:27:43.137Z,1007.51
2019-05-06T10:28:42.499Z,1007.60
2019-05-06T10:29:43.245Z,1007.59
2019-05-06T10:30:42.882Z,1007.55
2019-05-06T10:31:43.193Z,1007.59
2019-05-06T10:32:42.727Z,1007.57
2019-05-06T10:33:42.695Z,1007.53
2019-05-06T10:34:43.533Z,1007.53
2019-05-06T10:35:42.921Z,1007.52
2019-05-06T10:36:42.827Z,1007.58
2019-05-06T10:37:42.477Z,1007.57
2019-05-06T10:38:44.210Z,1007.57
2019-05-06T10:39:43.785Z,1007.51
2019-05-06T10:40:57.285Z,1007.54
2019-05-06T10:41:43.586Z,1007.49
2019-05-06T10:42:43.160Z,1007.49
2019-05-06T10:43:43.112Z,1007.51
2019-05-06T10:44:43.058Z,1007.50
2019-05-06T10:45:42.697Z,1007.50
2019-05-06T10:46:43.038Z,1007.46
2019-05-06T10:47:42.457Z,1007.46
2019-05-06T10:48:43.105Z,1007.53
2019-05-06T10:49:44.710Z,1007.39
2019-05-06T10:50:42.273Z,1007.41
2019-05-06T10:51:42.728Z,1007.46
2019-05-06T10:52:42.270Z,1007.41
2019-05-06T10:53:42.980Z,1007.40
2019-05-06T10:54:42.276Z,1007.44
2019-05-06T10:55:42.758Z,1007.40
2019-05-06T10:56:50.701Z,1007.46
2019-05-06T10:57:43.224Z,1007.41
2019-05-06T10:58:44.019Z,1007.34
2019-05-06T10:59:43.001Z,1007.37
2019-05-06T11:00:43.412Z,1007.42
2019-05-06T11:01:43.032Z,1007.41
2019-05-06T11:02:43.047Z,1007.43
2019-05-06T11:03:42.516Z,1007.53
2019-05-06T11:04:42.605Z,1007.51
2019-05-06T11:05:43.527Z,1007.45
2019-05-06T11:06:43.071Z,1007.29
2019-05-06T11:07:43.081Z,1007.26
2019-05-06T11:08:42.623Z,1007.31
2019-05-06T11:09:42.679Z,1007.25
2019-05-06T11:10:45.355Z,1007.25
2019-05-06T11:11:42.756Z,1007.34
2019-05-06T11:12:43.087Z,1007.32
2019-05-06T11:13:42.789Z,1007.35
2019-05-06T11:14:43.043Z,1007.26
2019-05-06T11:15:45.163Z,1007.30
2019-05-06T11:16:44.082Z,1007.19
2019-05-06T11:17:43.739Z,1007.09
2019-05-06T11:18:44.968Z,1007.14
2019-05-06T11:19:42.860Z,1007.14
2019-05-06T11:20:44.470Z,1007.30
2019-05-06T11:21:45.154Z,1007.26
2019-05-06T11:22:43.610Z,1007.24
2019-05-06T11:23:44.006Z,1007.08
2019-05-06T11:24:44.508Z,1007.04
2019-05-06T11:25:43.225Z,1007.04
2019-05-06T11:26:43.010Z,1007.07
2019-05-06T11:27:45.155Z,1007.00
2019-05-06T11:28:42.575Z,1007.00
2019-05-06T11:29:43.557Z,1007.00
2019-05-06T11:30:42.727Z,1007.02
2019-05-06T11:31:43.295Z,1007.00
2019-05-06T11:32:44.451Z,1007.02
2019-05-06T11:33:43.586Z,1007.02
2019-05-06T11:34:43.568Z,1007.02
2019-05-06T11:35:43.160Z,1006.99
2019-05-06T11:36:42.625Z,1007.02
2019-05-06T11:37:49.835Z,1007.02
2019-05-06T11:38:43.253Z,1007.02
2019-05-06T11:39:43.080Z,1006.99
2019-05-06T11:40:42.406Z,1007.02
2019-05-06T11:41:59.596Z,1007.06
2019-05-06T11:42:43.680Z,1007.06
2019-05-06T11:43:42.844Z,1007.03
2019-05-06T11:44:44.009Z,1007.05
2019-05-06T11:45:42.770Z,1007.11
2019-05-06T11:46:42.970Z,1007.11
2019-05-06T11:47:42.558Z,1007.16
2019-05-06T11:48:43.159Z,1007.05
2019-05-06T11:49:44.188Z,1007.11
2019-05-06T11:50:42.760Z,1007.08
2019-05-06T11:51:43.462Z,1007.09
2019-05-06T11:52:43.492Z,1007.09
2019-05-06T11:53:41.720Z,1007.14
2019-05-06T11:54:42.246Z,1007.05
2019-05-06T11:55:41.615Z,1007.04
2019-05-06T11:56:50.753Z,1007.00
2019-05-06T11:57:44.660Z,1006.97
2019-05-06T11:58:42.866Z,1006.97
2019-05-06T11:59:43.323Z,1007.02
2019-05-06T12:00:44.441Z,1006.90
2019-05-06T12:01:43.468Z,1006.91
2019-05-06T12:02:47.799Z,1006.93
2019-05-06T12:03:42.778Z,1006.91
2019-05-06T12:04:41.953Z,1006.83
2019-05-06T12:05:41.877Z,1007.10
2019-05-06T12:06:42.377Z,1007.14